»·PEaware :: N9074Q KSBA-KSNA

N9074Q :: KSBA-KSNA

FLIGHT INFORMATION

Flight Status: Arrived
Operator: Privately registered:
United States
More flights under this callsign
Pilot: John N. (18861)
Aircraft: BEECH AIRCRAFT BONANZA
(BE36)
More flights by this aircraft type
Origin: KSBA Santa Barbara Mun
United States
Destination: KSNA John Wayne-Orange Co
United States
More flights between these airports :: More routes between these airports
Route: +KWANG CMA VNY V186 BAYJY V363 POXKU V8 SLI
File this flight plan on PilotEdge
Remarks:
Altitude:
(Current/Filed)
60ft
Speed:
(Current/Filed)
160kts
Departed: 06-Mar-19 10:00 AM
Arrived: 06-Mar-19 10:50 AM
Distance/Time
Traveled:
108nm/0:49
Distance/Time
To Go:
Arrived

Flight Plot

Page will automatically refresh every two minutes.


Map Options




Map Legend


Flown Route
Filed Route
Departure Airport
Arrival Airport
Navaid (VOR, NDB)
Fix

Horizontal Profiles

Position Reports

Time Latitude Longitude Heading Altitude Ground
Speed
06-Mar-19 09:43 34.432797 -119.836318 72 14ft 0kts
06-Mar-19 09:44 34.432797 -119.836318 72 14ft 0kts
06-Mar-19 09:45 34.432797 -119.836317 72 14ft 0kts
06-Mar-19 09:46 34.432797 -119.836316 72 14ft 0kts
06-Mar-19 09:47 34.432797 -119.836316 72 14ft 0kts
06-Mar-19 09:48 34.432797 -119.836315 72 14ft 0kts
06-Mar-19 09:49 34.432798 -119.836314 72 14ft 0kts
06-Mar-19 09:50 34.432798 -119.836313 72 14ft 0kts
06-Mar-19 09:51 34.432798 -119.836313 72 14ft 0kts
06-Mar-19 09:52 34.432798 -119.836312 72 14ft 0kts
06-Mar-19 09:53 34.432798 -119.836311 72 14ft 0kts
06-Mar-19 09:54 34.432421 -119.836015 156 14ft 13kts
06-Mar-19 09:55 34.431164 -119.838378 254 14ft 5kts
06-Mar-19 09:56 34.431145 -119.838464 255 14ft 0kts
06-Mar-19 09:57 34.431145 -119.838464 255 14ft 0kts
06-Mar-19 09:58 34.430879 -119.839342 247 14ft 17kts
06-Mar-19 09:59 34.413141 -119.834183 161 453ft 115kts
06-Mar-19 10:00 34.387301 -119.826178 165 1853ft 99kts
06-Mar-19 10:01 34.360327 -119.814248 165 3107ft 104kts
06-Mar-19 10:02 34.333587 -119.800405 164 3919ft 124kts
06-Mar-19 10:03 34.325689 -119.755825 105 4664ft 153kts
06-Mar-19 10:04 34.319973 -119.701996 100 5014ft 174kts
06-Mar-19 10:05 34.315502 -119.644238 100 5003ft 184kts
06-Mar-19 10:06 34.310917 -119.583465 100 5005ft 184kts
06-Mar-19 10:07 34.306223 -119.521575 100 5011ft 184kts
06-Mar-19 10:08 34.303044 -119.479891 100 5002ft 184kts
06-Mar-19 10:09 34.298318 -119.418245 100 5008ft 184kts
06-Mar-19 10:10 34.293556 -119.356394 100 5010ft 184kts
06-Mar-19 10:11 34.288760 -119.294762 100 5003ft 184kts
06-Mar-19 10:12 34.284377 -119.238996 100 5002ft 183kts
06-Mar-19 10:13 34.279580 -119.177374 100 5004ft 183kts
06-Mar-19 10:14 34.274720 -119.116291 101 5007ft 182kts
06-Mar-19 10:15 34.269946 -119.055773 100 5005ft 183kts
06-Mar-19 10:16 34.264984 -118.994625 101 5001ft 181kts
06-Mar-19 10:17 34.260269 -118.935043 100 5013ft 181kts
06-Mar-19 10:18 34.255247 -118.874138 101 5002ft 181kts
06-Mar-19 10:19 34.250289 -118.813622 101 5004ft 181kts
06-Mar-19 10:20 34.245319 -118.753193 101 5014ft 181kts
06-Mar-19 10:21 34.240307 -118.692615 101 5020ft 180kts
06-Mar-19 10:22 34.235913 -118.639561 101 5007ft 180kts
06-Mar-19 10:23 34.231013 -118.580180 101 4988ft 180kts
06-Mar-19 10:24 34.225845 -118.519859 101 5015ft 180kts
06-Mar-19 10:25 34.215166 -118.462501 117 5010ft 175kts
06-Mar-19 10:26 34.198085 -118.407470 116 5001ft 175kts
06-Mar-19 10:27 34.181248 -118.352224 116 4996ft 174kts
06-Mar-19 10:28 34.164554 -118.297386 116 5000ft 174kts
06-Mar-19 10:29 34.147765 -118.242284 116 5008ft 174kts
06-Mar-19 10:30 34.131028 -118.187365 116 5014ft 174kts
06-Mar-19 10:31 34.114226 -118.132501 116 5018ft 174kts
06-Mar-19 10:32 34.099218 -118.083471 116 5024ft 174kts
06-Mar-19 10:33 34.082394 -118.028730 116 5025ft 174kts
06-Mar-19 10:34 34.066044 -117.975541 116 4981ft 175kts
06-Mar-19 10:35 34.049096 -117.920467 116 4980ft 174kts
06-Mar-19 10:36 34.032700 -117.867356 116 4976ft 174kts
06-Mar-19 10:37 34.015787 -117.812692 116 4928ft 175kts
06-Mar-19 10:38 33.983668 -117.784886 186 4300ft 147kts
06-Mar-19 10:39 33.944100 -117.784455 178 3977ft 134kts
06-Mar-19 10:40 33.911864 -117.773636 111 4004ft 131kts
06-Mar-19 10:41 33.907764 -117.732560 151 4013ft 126kts
06-Mar-19 10:42 33.874408 -117.742843 202 3731ft 135kts
06-Mar-19 10:43 33.841079 -117.763715 204 3418ft 134kts
06-Mar-19 10:44 33.807934 -117.784951 203 3049ft 135kts
06-Mar-19 10:45 33.773422 -117.809075 203 2081ft 135kts
06-Mar-19 10:46 33.742830 -117.826609 201 1465ft 102kts
06-Mar-19 10:47 33.718231 -117.841935 197 936ft 97kts
06-Mar-19 10:48 33.694397 -117.857454 202 483ft 88kts
06-Mar-19 10:49 33.676880 -117.868055 205 60ft 39kts
06-Mar-19 10:50 33.675885 -117.869953 292 60ft 0kts
06-Mar-19 10:51 33.676306 -117.871333 191 60ft 4kts

Navigation Log

Ident Type
Flight plan parsing failed, navigation log unavailable